Weather at Finspångs flygfält

Public forecast

Using degrees Celsius for public forecast. Weather courtesy of forecast.io.

Closest aviation weather report (METAR) to Finspångs flygfält

Closest report is Linköping City Airport, 19.8 nm (36.7 km) S. Retrieved 2021/08/02 18:20 UTC (30 minutes ago):

ESSL 021820Z AUTO 34007KT 310V010 9999 BKN029/// OVC036/// 14/11 Q1005

Closest aviation forecast (TAF) to Finspångs flygfält

Forecast is more than 12 hours old.

Closest forecast is Linköping City Airport, 19.8 nm (36.7 km) S. Retrieved 2019/05/16 09:33 UTC (2 years ago):

TAF ESSL 161130Z 1609/1621 09014G21KT CAVOK BECMG 1616/1618 08008G15KT RMK MIL